createdAt,value
2023-04-27T00:02:25.476Z,34.10
2023-04-27T00:07:28.497Z,13.93
2023-04-27T00:12:31.516Z,8.87
2023-04-27T00:17:35.888Z,13.33
2023-04-27T00:22:39.286Z,9.57
2023-04-27T00:27:42.134Z,8.53
2023-04-27T00:32:46.879Z,11.73
2023-04-27T00:37:54.868Z,9.43
2023-04-27T00:42:57.728Z,9.97
2023-04-27T00:48:03.246Z,8.70
2023-04-27T00:53:07.919Z,13.93
2023-04-27T00:58:10.895Z,16.10
2023-04-27T01:03:15.445Z,7.03
2023-04-27T01:08:20.041Z,11.20
2023-04-27T01:13:23.308Z,7.73
2023-04-27T01:18:27.618Z,11.10
2023-04-27T01:23:34.224Z,8.00
2023-04-27T01:28:37.156Z,9.80
2023-04-27T01:33:40.122Z,7.83
2023-04-27T01:38:45.114Z,8.57
2023-04-27T01:43:49.221Z,7.87
2023-04-27T01:48:52.085Z,8.60
2023-04-27T01:53:56.383Z,12.10
2023-04-27T01:58:59.314Z,7.57
2023-04-27T02:04:02.616Z,11.00
2023-04-27T02:09:07.122Z,11.50
2023-04-27T02:14:10.005Z,15.50
2023-04-27T02:19:13.121Z,9.60
2023-04-27T02:24:17.518Z,9.17
2023-04-27T02:29:21.573Z,10.83
2023-04-27T02:34:24.854Z,9.50
2023-04-27T02:39:29.121Z,8.47
2023-04-27T02:44:32.056Z,10.53
2023-04-27T02:49:37.410Z,12.63
2023-04-27T02:54:42.370Z,13.30
2023-04-27T02:59:45.217Z,17.90
2023-04-27T03:04:48.681Z,10.93
2023-04-27T03:09:52.970Z,13.07
2023-04-27T03:14:55.944Z,6.93
2023-04-27T03:20:00.679Z,9.90
2023-04-27T03:25:05.636Z,10.57
2023-04-27T03:30:09.779Z,9.80
2023-04-27T03:35:12.822Z,12.33
2023-04-27T03:40:17.129Z,11.77
2023-04-27T03:45:22.347Z,10.60
2023-04-27T03:50:26.965Z,10.03
2023-04-27T03:55:32.191Z,11.50
2023-04-27T04:00:36.013Z,14.57
2023-04-27T04:05:38.983Z,9.60
2023-04-27T04:10:43.209Z,14.13
2023-04-27T04:15:46.530Z,13.67
2023-04-27T04:20:49.450Z,10.80
2023-04-27T04:25:54.337Z,10.27
2023-04-27T04:30:57.631Z,8.80
2023-04-27T04:36:00.535Z,11.80
2023-04-27T04:41:04.823Z,15.77
2023-04-27T04:46:09.459Z,14.53
2023-04-27T04:51:12.429Z,21.30
2023-04-27T04:56:16.969Z,15.27
2023-04-27T05:01:19.921Z,30.70
2023-04-27T05:06:24.511Z,29.40
2023-04-27T05:11:28.803Z,20.40
2023-04-27T05:16:31.796Z,17.57
2023-04-27T05:21:34.753Z,15.87
2023-04-27T05:26:38.988Z,11.17
2023-04-27T05:31:41.840Z,12.10
2023-04-27T05:36:44.714Z,15.83
2023-04-27T05:41:49.101Z,12.60
2023-04-27T05:46:52.012Z,10.83
2023-04-27T05:51:54.937Z,10.93
2023-04-27T05:56:59.155Z,11.67
2023-04-27T06:02:02.044Z,11.33
2023-04-27T06:07:10.286Z,14.50
2023-04-27T06:12:14.656Z,9.20
2023-04-27T06:17:17.575Z,12.50
2023-04-27T06:22:20.446Z,10.73
2023-04-27T06:27:24.811Z,9.50
2023-04-27T06:32:27.761Z,8.67
2023-04-27T06:37:30.651Z,10.20
2023-04-27T06:42:34.931Z,9.30
2023-04-27T06:47:37.798Z,13.80
2023-04-27T06:52:40.772Z,9.00
2023-04-27T06:57:45.081Z,13.43
2023-04-27T07:02:48.200Z,13.30
2023-04-27T07:07:51.194Z,14.27
2023-04-27T07:12:55.617Z,10.13
2023-04-27T07:17:58.727Z,9.20
2023-04-27T07:23:02.007Z,9.20
2023-04-27T07:28:06.798Z,10.30
2023-04-27T07:33:09.909Z,10.73
2023-04-27T07:38:12.811Z,9.37
2023-04-27T07:43:17.937Z,16.20
2023-04-27T07:48:21.422Z,11.33
2023-04-27T07:53:24.368Z,8.30
2023-04-27T07:58:28.634Z,8.23
2023-04-27T08:03:31.837Z,8.40
2023-04-27T08:08:34.913Z,6.80
2023-04-27T08:13:39.473Z,9.10
2023-04-27T08:18:42.383Z,9.47
2023-04-27T08:23:45.296Z,6.77
2023-04-27T08:28:50.104Z,7.13
2023-04-27T08:33:53.361Z,9.93
2023-04-27T08:38:56.267Z,8.60
2023-04-27T08:44:01.127Z,9.47
2023-04-27T08:49:04.100Z,8.73
2023-04-27T08:54:07.020Z,10.13
2023-04-27T08:59:17.782Z,11.03
2023-04-27T09:04:21.152Z,8.57
2023-04-27T09:09:25.181Z,8.20
2023-04-27T09:14:35.274Z,7.50
2023-04-27T09:19:38.247Z,7.37
2023-04-27T09:24:52.125Z,10.17
2023-04-27T09:29:56.365Z,10.20
2023-04-27T09:34:59.300Z,8.17
2023-04-27T09:40:04.331Z,9.20
2023-04-27T09:45:11.152Z,13.30
2023-04-27T09:50:14.949Z,12.73
2023-04-27T09:55:21.064Z,10.97
2023-04-27T10:00:40.218Z,12.20
2023-04-27T10:06:21.996Z,10.03
2023-04-27T10:11:39.545Z,9.60
2023-04-27T10:16:47.572Z,12.67
2023-04-27T10:22:00.380Z,13.90
2023-04-27T10:27:06.382Z,8.73
2023-04-27T10:32:13.205Z,10.93
2023-04-27T10:37:16.831Z,7.10
2023-04-27T10:42:29.422Z,9.63
2023-04-27T10:47:41.729Z,14.20
2023-04-27T10:52:46.705Z,12.43
2023-04-27T10:57:51.845Z,11.17
2023-04-27T11:02:58.122Z,13.27
2023-04-27T11:08:08.741Z,10.17
2023-04-27T11:13:14.253Z,9.43
2023-04-27T11:18:20.011Z,14.87
2023-04-27T11:23:27.228Z,10.10
2023-04-27T11:28:30.084Z,11.97
2023-04-27T11:33:35.970Z,10.57
2023-04-27T11:38:39.021Z,11.03
2023-04-27T11:43:43.547Z,8.43
2023-04-27T11:48:47.853Z,9.77
2023-04-27T11:53:52.177Z,12.10
2023-04-27T11:58:55.155Z,11.40
2023-04-27T12:04:02.231Z,10.10
2023-04-27T12:09:05.557Z,11.60
2023-04-27T12:14:08.414Z,12.33
2023-04-27T12:19:12.915Z,12.50
2023-04-27T12:24:15.972Z,12.30
2023-04-27T12:29:19.185Z,11.37
2023-04-27T12:34:23.440Z,11.37
2023-04-27T12:39:26.778Z,14.20
2023-04-27T12:44:29.906Z,9.43
2023-04-27T12:49:34.235Z,13.70
2023-04-27T12:54:37.465Z,10.90
2023-04-27T12:59:41.482Z,13.73
2023-04-27T13:04:46.386Z,15.83
2023-04-27T13:09:49.383Z,14.30
2023-04-27T13:14:52.293Z,11.07
2023-04-27T13:19:56.579Z,10.87
2023-04-27T13:24:59.532Z,14.53
2023-04-27T13:30:02.425Z,9.53
2023-04-27T13:35:07.807Z,12.37
2023-04-27T13:40:12.572Z,11.20
2023-04-27T13:45:15.781Z,10.23
2023-04-27T13:50:20.054Z,13.63
2023-04-27T13:55:22.965Z,12.73
2023-04-27T14:00:26.259Z,15.73
2023-04-27T14:05:32.056Z,13.53
2023-04-27T14:10:37.384Z,12.70
2023-04-27T14:15:40.272Z,15.37
2023-04-27T14:20:46.050Z,16.90
2023-04-27T14:25:49.092Z,14.27
2023-04-27T14:30:52.675Z,15.67
2023-04-27T14:35:57.765Z,12.73
2023-04-27T14:41:02.085Z,13.43
2023-04-27T14:46:19.638Z,13.00
2023-04-27T14:51:24.942Z,18.30
2023-04-27T14:56:28.058Z,15.60
2023-04-27T15:01:32.265Z,11.77
2023-04-27T15:06:37.033Z,15.10
2023-04-27T15:11:39.975Z,13.00
2023-04-27T15:16:42.879Z,13.60
2023-04-27T15:21:48.585Z,14.20
2023-04-27T15:26:52.273Z,13.27
2023-04-27T15:31:55.830Z,14.10
2023-04-27T15:37:00.165Z,11.27
2023-04-27T15:42:04.334Z,13.77
2023-04-27T15:47:07.666Z,13.30
2023-04-27T15:52:12.065Z,11.00
2023-04-27T15:57:15.024Z,11.60
2023-04-27T16:02:17.999Z,13.70
2023-04-27T16:07:22.371Z,12.90
2023-04-27T16:12:25.338Z,13.10
2023-04-27T16:17:29.333Z,14.90
2023-04-27T16:22:34.072Z,11.70
2023-04-27T16:27:37.358Z,16.80
2023-04-27T16:32:40.315Z,14.40
2023-04-27T16:37:44.759Z,14.83
2023-04-27T16:42:48.188Z,12.27
2023-04-27T16:47:51.451Z,12.57
2023-04-27T16:52:55.832Z,14.90
2023-04-27T16:57:58.703Z,14.87
2023-04-27T17:03:01.719Z,13.53
2023-04-27T17:08:06.410Z,13.60
2023-04-27T17:13:11.035Z,15.57
2023-04-27T17:18:13.971Z,15.80
2023-04-27T17:23:18.248Z,15.33
2023-04-27T17:28:22.354Z,15.30
2023-04-27T17:33:25.470Z,10.70
2023-04-27T17:38:29.710Z,13.50
2023-04-27T17:43:32.671Z,13.53
2023-04-27T17:48:36.283Z,15.13
2023-04-27T17:53:41.244Z,13.00
2023-04-27T17:58:44.306Z,15.20
2023-04-27T18:03:48.851Z,15.70
2023-04-27T18:08:53.259Z,15.43
2023-04-27T18:13:57.900Z,11.20
2023-04-27T18:19:00.914Z,12.53
2023-04-27T18:24:06.053Z,10.40
2023-04-27T18:29:08.950Z,12.07
2023-04-27T18:34:11.909Z,13.13
2023-04-27T18:39:16.621Z,12.00
2023-04-27T18:44:19.823Z,10.50
2023-04-27T18:49:22.860Z,14.07
2023-04-27T18:54:27.201Z,20.30
2023-04-27T18:59:30.163Z,24.53
2023-04-27T19:04:34.400Z,23.40
2023-04-27T19:09:39.258Z,17.20
2023-04-27T19:14:42.635Z,14.97
2023-04-27T19:19:45.830Z,14.37
2023-04-27T19:24:50.158Z,15.37
2023-04-27T19:29:55.780Z,12.40
2023-04-27T19:34:59.912Z,15.97
2023-04-27T19:40:05.698Z,15.07
2023-04-27T19:45:09.607Z,13.70
2023-04-27T19:50:13.177Z,19.57
2023-04-27T19:55:17.540Z,13.03
2023-04-27T20:00:20.805Z,16.40
2023-04-27T20:05:23.993Z,15.23
2023-04-27T20:10:28.657Z,16.40
2023-04-27T20:15:32.315Z,17.20
2023-04-27T20:20:35.183Z,19.13
2023-04-27T20:25:39.424Z,17.97
2023-04-27T20:30:42.300Z,17.70
2023-04-27T20:35:46.689Z,17.20
2023-04-27T20:40:52.643Z,15.63
2023-04-27T20:45:55.594Z,16.07
2023-04-27T20:50:58.494Z,13.47
2023-04-27T20:56:02.749Z,12.37
2023-04-27T21:01:05.904Z,15.73
2023-04-27T21:06:08.834Z,14.40
2023-04-27T21:11:14.170Z,14.97
2023-04-27T21:16:18.509Z,20.33
2023-04-27T21:21:22.132Z,17.03
2023-04-27T21:26:26.894Z,21.80
2023-04-27T21:31:29.965Z,19.27
2023-04-27T21:36:33.932Z,21.40
2023-04-27T21:41:39.291Z,18.93
2023-04-27T21:46:42.289Z,18.93
2023-04-27T21:51:45.354Z,17.13
2023-04-27T21:56:49.608Z,16.67
2023-04-27T22:01:52.528Z,20.80
2023-04-27T22:06:55.403Z,14.87
2023-04-27T22:11:59.694Z,18.40
2023-04-27T22:17:02.638Z,17.37
2023-04-27T22:22:05.524Z,16.53
2023-04-27T22:27:09.780Z,17.23
2023-04-27T22:32:12.692Z,16.20
2023-04-27T22:37:15.773Z,16.70
2023-04-27T22:42:20.052Z,18.20
2023-04-27T22:47:22.965Z,18.57
2023-04-27T22:52:25.988Z,16.70
2023-04-27T22:57:31.548Z,18.03
2023-04-27T23:02:34.579Z,17.73
2023-04-27T23:07:37.589Z,16.73
2023-04-27T23:12:41.917Z,17.23
2023-04-27T23:17:44.910Z,17.70
2023-04-27T23:22:47.789Z,17.30
2023-04-27T23:27:52.871Z,17.27
2023-04-27T23:32:56.414Z,19.70
2023-04-27T23:37:59.571Z,20.27
2023-04-27T23:43:03.909Z,15.40
2023-04-27T23:48:07.244Z,18.90
2023-04-27T23:53:10.995Z,21.67
2023-04-27T23:58:15.568Z,23.37
